Time;durP1;ratioP1;P1;durP2;ratioP2;P2;SDS_P1;SDS_P2;PMS_P1;PMS_P2;Temp;Humidity;BMP_temperature;BMP_pressure;BME280_temperature;BME280_humidity;BME280_pressure;Samples;Min_cycle;Max_cycle;Signal;HPM_P1;HPM_P2
2022/04/10 00:01:16;;;;;;;;;;;6.60;84.10;;;;;;5015231;28;19940;-70
2022/04/10 00:03:43;;;;;;;;;;;6.60;84.40;;;;;;5016875;28;19929;-70
2022/04/10 00:06:10;;;;;;;;;;;6.60;84.60;;;;;;5024950;28;20454;-70
2022/04/10 00:08:37;;;;;;;;;;;6.60;85.00;;;;;;5035594;28;20391;-70
2022/04/10 00:11:04;;;;;;;;;;;6.50;83.40;;;;;;5036031;28;19932;-70
2022/04/10 00:13:31;;;;;;;;;;;6.60;83.70;;;;;;5035396;28;20055;-70
2022/04/10 00:15:58;;;;;;;;;;;6.60;84.50;;;;;;5036815;28;20367;-70
2022/04/10 00:18:25;;;;;;;;;;;6.60;84.30;;;;;;5036341;28;20031;-70
2022/04/10 00:20:52;;;;;;;;;;;6.60;83.60;;;;;;5037747;28;20479;-71
2022/04/10 00:23:19;;;;;;;;;;;6.60;83.40;;;;;;5050064;28;19929;-70
2022/04/10 00:25:47;;;;;;;;;;;6.60;83.00;;;;;;5033355;28;19936;-71
2022/04/10 00:28:13;;;;;;;;;;;6.60;82.40;;;;;;5034770;28;19925;-71
2022/04/10 00:30:40;;;;;;;;;;;6.50;82.60;;;;;;5050888;28;22199;-70
2022/04/10 00:33:07;;;;;;;;;;;6.50;83.00;;;;;;5044099;28;19933;-70
2022/04/10 00:35:34;;;;;;;;;;;6.50;83.00;;;;;;5036052;28;19929;-70
2022/04/10 00:38:02;;;;;;;;;;;6.50;83.00;;;;;;5034974;28;20015;-71
2022/04/10 00:40:29;;;;;;;;;;;6.50;83.00;;;;;;5018420;28;19979;-70
2022/04/10 00:42:56;;;;;;;;;;;6.50;82.50;;;;;;5050043;28;19940;-71
2022/04/10 00:45:22;;;;;;;;;;;6.50;83.30;;;;;;5039125;28;19929;-71
2022/04/10 00:47:49;;;;;;;;;;;6.50;83.00;;;;;;5037800;28;19935;-70
2022/04/10 00:50:18;;;;;;;;;;;6.40;82.90;;;;;;5019408;28;20474;-70
2022/04/10 00:52:45;;;;;;;;;;;6.40;83.70;;;;;;5036629;28;19929;-70
2022/04/10 00:55:12;;;;;;;;;;;6.40;83.80;;;;;;5034341;28;20023;-70
2022/04/10 00:57:39;;;;;;;;;;;6.40;83.40;;;;;;5032465;28;19999;-70
2022/04/10 01:00:10;;;;;;;;;;;6.40;83.70;;;;;;5038278;28;19929;-70
2022/04/10 01:02:38;;;;;;;;;;;6.40;84.00;;;;;;5034308;28;19939;-70
2022/04/10 01:05:05;;;;;;;;;;;6.40;84.20;;;;;;5036432;28;19963;-70
2022/04/10 01:07:33;;;;;;;;;;;6.50;84.70;;;;;;5028881;28;19933;-71
2022/04/10 01:09:59;;;;;;;;;;;6.40;84.50;;;;;;5035583;28;19940;-71
2022/04/10 01:12:27;;;;;;;;;;;6.30;84.60;;;;;;5034311;28;20376;-70
2022/04/10 01:14:58;;;;;;;;;;;6.30;85.00;;;;;;5032399;28;20446;-71
2022/04/10 01:17:32;;;;;;;;;;;6.30;85.30;;;;;;5036391;28;20020;-70
2022/04/10 01:20:00;;;;;;;;;;;6.20;84.90;;;;;;5038291;28;19987;-70
2022/04/10 01:22:33;;;;;;;;;;;6.20;84.30;;;;;;5034034;28;19928;-70
2022/04/10 01:25:04;;;;;;;;;;;6.20;84.40;;;;;;5049584;28;20067;-70
2022/04/10 01:27:37;;;;;;;;;;;6.20;84.50;;;;;;5051091;28;19928;-70
2022/04/10 01:30:05;;;;;;;;;;;6.20;84.40;;;;;;5049034;28;19929;-71
2022/04/10 01:32:32;;;;;;;;;;;6.20;84.60;;;;;;5035238;28;19925;-70
2022/04/10 01:35:00;;;;;;;;;;;6.10;85.00;;;;;;5035183;28;19933;-71
2022/04/10 01:37:28;;;;;;;;;;;6.10;84.80;;;;;;5051332;28;19968;-70
2022/04/10 01:39:55;;;;;;;;;;;6.10;84.70;;;;;;5038370;28;20551;-70
2022/04/10 01:42:23;;;;;;;;;;;6.00;84.90;;;;;;5029640;28;20608;-71
2022/04/10 01:44:50;;;;;;;;;;;6.10;85.40;;;;;;5030540;28;19933;-71
2022/04/10 01:47:19;;;;;;;;;;;6.00;85.60;;;;;;5039502;28;19979;-71
2022/04/10 01:49:46;;;;;;;;;;;6.00;86.00;;;;;;5033793;28;19932;-71
2022/04/10 01:52:13;;;;;;;;;;;6.00;86.10;;;;;;5034299;28;19928;-71
2022/04/10 01:54:42;;;;;;;;;;;5.90;86.50;;;;;;5051996;28;20427;-71
2022/04/10 01:57:10;;;;;;;;;;;5.90;87.00;;;;;;5038135;28;19932;-70
2022/04/10 01:59:38;;;;;;;;;;;5.90;87.00;;;;;;5034340;28;19928;-71
2022/04/10 02:02:05;;;;;;;;;;;5.90;87.80;;;;;;5032840;28;20023;-71
2022/04/10 02:04:32;;;;;;;;;;;5.90;87.80;;;;;;5036299;28;20392;-70
2022/04/10 02:06:59;;;;;;;;;;;5.90;88.00;;;;;;5036487;28;19929;-71
2022/04/10 02:09:27;;;;;;;;;;;5.80;87.70;;;;;;5041181;28;20304;-71
2022/04/10 02:11:54;;;;;;;;;;;5.80;87.80;;;;;;5031708;28;20746;-70
2022/04/10 02:14:21;;;;;;;;;;;5.70;88.10;;;;;;5028367;28;19925;-71
2022/04/10 02:16:48;;;;;;;;;;;5.70;88.60;;;;;;5032522;28;20196;-71
2022/04/10 02:19:16;;;;;;;;;;;5.80;88.60;;;;;;5033419;28;19929;-71
2022/04/10 02:21:42;;;;;;;;;;;5.70;88.80;;;;;;5033025;28;19936;-70
2022/04/10 02:24:09;;;;;;;;;;;5.70;89.00;;;;;;5036079;28;19959;-70
2022/04/10 02:26:36;;;;;;;;;;;5.70;89.10;;;;;;5034949;28;20703;-71
2022/04/10 02:29:03;;;;;;;;;;;5.60;89.20;;;;;;5035228;28;19928;-71
2022/04/10 02:31:30;;;;;;;;;;;5.70;88.90;;;;;;5051509;28;20403;-71
2022/04/10 02:33:58;;;;;;;;;;;5.60;89.10;;;;;;5035498;28;19929;-71
2022/04/10 02:36:25;;;;;;;;;;;5.60;89.60;;;;;;5039714;28;19925;-70
2022/04/10 02:38:52;;;;;;;;;;;5.50;90.00;;;;;;5020125;28;20024;-70
2022/04/10 02:41:21;;;;;;;;;;;5.50;90.30;;;;;;5052030;28;20431;-71
2022/04/10 02:43:51;;;;;;;;;;;5.40;90.40;;;;;;5036406;28;19933;-71
2022/04/10 02:46:18;;;;;;;;;;;5.40;90.70;;;;;;5034684;28;19933;-71
2022/04/10 02:48:46;;;;;;;;;;;5.40;90.80;;;;;;5034866;28;20002;-71
2022/04/10 02:51:17;;;;;;;;;;;5.40;91.00;;;;;;5022305;28;20435;-71
2022/04/10 02:53:45;;;;;;;;;;;5.30;91.10;;;;;;5037560;28;19929;-71
2022/04/10 02:56:12;;;;;;;;;;;5.30;91.30;;;;;;5040189;28;19936;-71
2022/04/10 02:58:40;;;;;;;;;;;5.30;91.40;;;;;;5055914;28;20337;-71
2022/04/10 03:01:08;;;;;;;;;;;5.20;91.60;;;;;;5021526;28;20310;-70
2022/04/10 03:03:36;;;;;;;;;;;5.20;91.80;;;;;;5043645;28;19928;-70
2022/04/10 03:06:03;;;;;;;;;;;5.20;91.90;;;;;;5023153;28;19929;-70
2022/04/10 03:08:31;;;;;;;;;;;5.10;92.10;;;;;;5035748;28;19937;-70
2022/04/10 03:10:58;;;;;;;;;;;5.10;92.30;;;;;;5038799;28;19928;-70
2022/04/10 03:13:25;;;;;;;;;;;5.00;92.50;;;;;;5039675;28;19998;-71
2022/04/10 03:15:54;;;;;;;;;;;5.10;92.60;;;;;;5040308;28;19957;-71
2022/04/10 03:18:22;;;;;;;;;;;5.10;92.40;;;;;;5040566;28;19960;-70
2022/04/10 03:20:49;;;;;;;;;;;5.10;92.60;;;;;;5039217;28;19929;-70
2022/04/10 03:23:17;;;;;;;;;;;5.00;92.60;;;;;;5044674;28;20368;-70
2022/04/10 03:25:45;;;;;;;;;;;5.10;92.70;;;;;;5033142;28;19975;-70
2022/04/10 03:28:13;;;;;;;;;;;5.00;93.00;;;;;;5022358;28;19995;-71
2022/04/10 03:30:45;;;;;;;;;;;5.00;92.70;;;;;;5023195;28;19929;-70
2022/04/10 03:33:13;;;;;;;;;;;4.90;93.00;;;;;;5052839;28;20334;-71
2022/04/10 03:35:40;;;;;;;;;;;4.90;93.20;;;;;;5038526;28;20399;-71
2022/04/10 03:38:09;;;;;;;;;;;4.90;93.30;;;;;;5048643;28;19928;-70
2022/04/10 03:40:36;;;;;;;;;;;4.90;93.20;;;;;;5035185;28;20320;-70
2022/04/10 03:43:03;;;;;;;;;;;4.80;93.40;;;;;;5037431;28;19933;-71
2022/04/10 03:45:30;;;;;;;;;;;4.80;93.60;;;;;;5036144;28;19929;-70
2022/04/10 03:47:58;;;;;;;;;;;4.70;93.70;;;;;;5034119;28;19936;-70
2022/04/10 03:50:29;;;;;;;;;;;4.80;94.10;;;;;;5038753;28;20314;-70
2022/04/10 03:52:57;;;;;;;;;;;4.80;93.90;;;;;;5041075;28;19960;-70
2022/04/10 03:55:24;;;;;;;;;;;4.70;94.20;;;;;;5039796;28;19933;-70
2022/04/10 03:57:54;;;;;;;;;;;4.70;94.20;;;;;;5024936;28;19935;-70
2022/04/10 04:00:22;;;;;;;;;;;4.70;94.10;;;;;;5036788;28;19935;-70
2022/04/10 04:02:56;;;;;;;;;;;4.70;94.30;;;;;;5035765;28;19931;-70
2022/04/10 04:05:26;;;;;;;;;;;4.60;94.50;;;;;;5036326;28;20461;-70
2022/04/10 04:07:54;;;;;;;;;;;4.50;94.60;;;;;;5038525;28;19952;-70
2022/04/10 04:10:25;;;;;;;;;;;4.50;94.80;;;;;;5036764;28;19960;-70
2022/04/10 04:12:53;;;;;;;;;;;4.50;94.70;;;;;;5037737;28;20482;-70
2022/04/10 04:15:21;;;;;;;;;;;4.50;94.70;;;;;;5037360;28;19939;-70
2022/04/10 04:17:48;;;;;;;;;;;4.50;94.90;;;;;;5025019;28;19929;-71
2022/04/10 04:20:16;;;;;;;;;;;4.60;94.70;;;;;;5019847;28;19925;-70
2022/04/10 04:22:44;;;;;;;;;;;4.50;94.70;;;;;;5039244;28;19990;-70
2022/04/10 04:25:12;;;;;;;;;;;4.50;94.80;;;;;;5023306;28;20362;-70
2022/04/10 04:27:40;;;;;;;;;;;4.50;94.80;;;;;;5050702;28;19951;-70
2022/04/10 04:30:07;;;;;;;;;;;4.50;94.70;;;;;;5034529;28;19952;-71
2022/04/10 04:32:38;;;;;;;;;;;4.40;94.90;;;;;;5036014;28;19929;-71
2022/04/10 04:35:06;;;;;;;;;;;4.50;95.00;;;;;;5032360;28;20472;-71
2022/04/10 04:37:40;;;;;;;;;;;4.50;95.00;;;;;;5035281;28;20395;-71
2022/04/10 04:40:10;;;;;;;;;;;4.50;95.00;;;;;;5035174;28;19935;-70
2022/04/10 04:42:37;;;;;;;;;;;4.50;95.20;;;;;;5038005;28;19932;-70
2022/04/10 04:45:06;;;;;;;;;;;4.40;95.40;;;;;;5041292;28;19929;-71
2022/04/10 04:47:33;;;;;;;;;;;4.50;95.40;;;;;;5051529;28;20006;-70
2022/04/10 04:50:00;;;;;;;;;;;4.50;95.30;;;;;;5044902;28;19933;-70
2022/04/10 04:52:31;;;;;;;;;;;4.50;95.40;;;;;;5040380;28;20458;-70
2022/04/10 04:54:58;;;;;;;;;;;4.50;95.70;;;;;;5031160;28;19933;-70
2022/04/10 04:57:26;;;;;;;;;;;4.50;95.80;;;;;;5018341;28;19924;-71
2022/04/10 04:59:53;;;;;;;;;;;4.50;95.70;;;;;;5022929;28;19928;-70
2022/04/10 05:02:20;;;;;;;;;;;4.50;96.00;;;;;;4999835;28;21945;-70
2022/04/10 05:04:47;;;;;;;;;;;4.60;95.70;;;;;;4993217;28;19940;-70
2022/04/10 05:07:14;;;;;;;;;;;4.60;96.00;;;;;;4994513;28;19933;-70
2022/04/10 05:09:41;;;;;;;;;;;4.60;95.90;;;;;;4992060;28;20241;-70
2022/04/10 05:12:09;;;;;;;;;;;4.60;95.90;;;;;;4993875;28;22381;-70
2022/04/10 05:14:38;;;;;;;;;;;4.60;96.20;;;;;;4993877;28;19932;-70
2022/04/10 05:17:05;;;;;;;;;;;4.70;95.90;;;;;;5007246;28;20016;-70
2022/04/10 05:19:36;;;;;;;;;;;4.80;95.90;;;;;;4998827;28;19975;-70
2022/04/10 05:22:03;;;;;;;;;;;4.80;95.80;;;;;;4993898;28;19933;-70
2022/04/10 05:24:32;;;;;;;;;;;4.80;95.80;;;;;;4981342;28;20805;-70
2022/04/10 05:26:59;;;;;;;;;;;4.90;95.80;;;;;;4974009;28;19933;-71
2022/04/10 05:29:26;;;;;;;;;;;4.90;95.70;;;;;;4984910;28;19933;-70
2022/04/10 05:31:53;;;;;;;;;;;5.00;95.50;;;;;;4992174;28;19940;-70
2022/04/10 05:34:21;;;;;;;;;;;5.00;95.60;;;;;;5008200;28;20289;-71
2022/04/10 05:36:48;;;;;;;;;;;5.10;95.10;;;;;;5007268;28;20354;-71
2022/04/10 05:39:14;;;;;;;;;;;5.10;95.20;;;;;;4995788;28;19940;-70
2022/04/10 05:41:42;;;;;;;;;;;5.20;95.00;;;;;;4981135;28;19940;-70
2022/04/10 05:44:13;;;;;;;;;;;5.30;94.90;;;;;;4974644;28;19933;-71
2022/04/10 05:46:40;;;;;;;;;;;5.30;94.70;;;;;;5008135;28;20639;-70
2022/04/10 05:49:16;;;;;;;;;;;5.40;94.70;;;;;;5001956;28;19933;-70
2022/04/10 05:51:44;;;;;;;;;;;5.50;94.40;;;;;;4998713;28;22374;-70
2022/04/10 05:54:13;;;;;;;;;;;5.60;94.00;;;;;;4999732;28;20047;-70
2022/04/10 05:56:45;;;;;;;;;;;5.70;93.60;;;;;;4989286;28;19933;-70
2022/04/10 05:59:12;;;;;;;;;;;5.70;93.60;;;;;;4993247;28;20607;-70
2022/04/10 06:01:39;;;;;;;;;;;5.80;92.90;;;;;;4989397;28;20426;-70
2022/04/10 06:04:07;;;;;;;;;;;6.00;92.70;;;;;;4990621;28;20700;-70
2022/04/10 06:06:34;;;;;;;;;;;6.10;92.20;;;;;;4975994;28;22212;-70
2022/04/10 06:09:11;;;;;;;;;;;6.10;91.70;;;;;;4989282;28;19933;-70
2022/04/10 06:11:38;;;;;;;;;;;6.30;91.80;;;;;;4991316;28;20579;-70
2022/04/10 06:14:05;;;;;;;;;;;6.30;90.90;;;;;;4979819;28;20154;-70
2022/04/10 06:16:32;;;;;;;;;;;6.60;90.90;;;;;;5001506;28;19956;-70
2022/04/10 06:19:01;;;;;;;;;;;6.70;90.50;;;;;;4987472;28;19944;-70
2022/04/10 06:21:28;;;;;;;;;;;6.80;89.20;;;;;;4990367;28;19932;-70
2022/04/10 06:23:56;;;;;;;;;;;6.70;90.00;;;;;;4980733;28;24502;-70
2022/04/10 06:26:31;;;;;;;;;;;6.90;88.10;;;;;;4994243;28;19940;-70
2022/04/10 06:28:58;;;;;;;;;;;6.90;87.50;;;;;;5006531;28;22456;-71
2022/04/10 06:31:42;;;;;;;;;;;6.90;87.30;;;;;;4980334;28;19933;-70
2022/04/10 06:34:09;;;;;;;;;;;7.10;86.30;;;;;;5006061;28;19933;-70
2022/04/10 06:36:38;;;;;;;;;;;7.20;85.70;;;;;;5005228;28;20307;-70
2022/04/10 06:39:13;;;;;;;;;;;7.30;87.10;;;;;;4979529;28;19932;-70
2022/04/10 06:41:40;;;;;;;;;;;7.50;86.10;;;;;;4994801;28;20842;-70
2022/04/10 06:44:17;;;;;;;;;;;7.70;84.60;;;;;;4975051;28;20026;-70
2022/04/10 06:46:48;;;;;;;;;;;7.50;83.40;;;;;;4989233;28;19940;-71
2022/04/10 06:49:23;;;;;;;;;;;7.60;83.30;;;;;;5002022;28;20141;-70
2022/04/10 06:51:52;;;;;;;;;;;7.70;83.00;;;;;;4981086;28;19944;-70
2022/04/10 06:54:27;;;;;;;;;;;7.90;81.80;;;;;;4989128;28;19933;-70
2022/04/10 06:56:54;;;;;;;;;;;7.90;81.00;;;;;;4986937;28;19933;-70
2022/04/10 06:59:21;;;;;;;;;;;8.20;81.20;;;;;;4994430;28;19933;-70
2022/04/10 07:01:48;;;;;;;;;;;8.20;80.60;;;;;;4987098;28;21971;-70
2022/04/10 07:04:15;;;;;;;;;;;8.20;79.50;;;;;;4988738;28;19940;-69
2022/04/10 07:06:46;;;;;;;;;;;8.20;80.00;;;;;;4972319;28;20052;-70
2022/04/10 07:09:15;;;;;;;;;;;8.40;79.50;;;;;;4989888;28;19933;-70
2022/04/10 07:11:42;;;;;;;;;;;8.60;80.00;;;;;;5005887;28;19940;-70
2022/04/10 07:14:21;;;;;;;;;;;8.50;79.00;;;;;;4995433;28;20812;-70
2022/04/10 07:16:48;;;;;;;;;;;8.50;79.00;;;;;;4989361;28;19933;-70
2022/04/10 07:19:15;;;;;;;;;;;8.50;78.70;;;;;;4991293;28;20169;-70
2022/04/10 07:24:29;;;;;;;;;;;8.90;76.90;;;;;;4991697;28;20403;-70
2022/04/10 07:26:57;;;;;;;;;;;8.90;77.40;;;;;;4991596;28;22314;-70
2022/04/10 07:29:32;;;;;;;;;;;9.00;76.70;;;;;;4996893;28;19980;-70
2022/04/10 07:31:59;;;;;;;;;;;8.90;77.00;;;;;;4989376;28;20095;-70
2022/04/10 07:34:30;;;;;;;;;;;9.10;77.60;;;;;;4990517;28;19940;-70
2022/04/10 07:37:12;;;;;;;;;;;9.20;75.70;;;;;;4987966;28;19937;-70
2022/04/10 07:39:48;;;;;;;;;;;9.30;76.10;;;;;;4979592;28;19933;-70
2022/04/10 07:42:22;;;;;;;;;;;9.40;74.90;;;;;;5005548;28;20041;-69
2022/04/10 07:45:06;;;;;;;;;;;9.20;73.90;;;;;;5006037;28;20020;-69
2022/04/10 07:47:56;;;;;;;;;;;9.50;73.30;;;;;;4992509;28;19932;-70
2022/04/10 07:50:24;;;;;;;;;;;9.50;74.60;;;;;;4999402;28;19940;-70
2022/04/10 07:52:51;;;;;;;;;;;9.70;73.90;;;;;;4994647;28;19933;-70
2022/04/10 07:55:29;;;;;;;;;;;9.60;72.60;;;;;;4992336;28;20242;-70
2022/04/10 07:57:59;;;;;;;;;;;9.60;71.50;;;;;;4989477;28;19991;-71
2022/04/10 08:00:32;;;;;;;;;;;9.60;70.30;;;;;;4995312;28;22234;-71
2022/04/10 08:03:02;;;;;;;;;;;9.70;69.10;;;;;;4993873;28;19933;-68
2022/04/10 08:05:51;;;;;;;;;;;9.60;68.90;;;;;;5007585;28;22317;-69
2022/04/10 08:08:38;;;;;;;;;;;10.00;70.20;;;;;;4989521;28;19979;-69
2022/04/10 08:11:06;;;;;;;;;;;10.20;69.70;;;;;;4993006;28;20067;-70
2022/04/10 08:13:33;;;;;;;;;;;10.20;68.00;;;;;;4990714;28;20223;-69
2022/04/10 08:16:01;;;;;;;;;;;10.00;66.80;;;;;;4986948;28;19933;-69
2022/04/10 08:18:28;;;;;;;;;;;9.90;66.50;;;;;;4992199;28;19933;-68
2022/04/10 08:20:55;;;;;;;;;;;10.00;66.50;;;;;;4993814;28;19985;-69
2022/04/10 08:23:23;;;;;;;;;;;10.20;67.60;;;;;;4991690;28;22218;-71
2022/04/10 08:25:50;;;;;;;;;;;9.90;65.00;;;;;;4985308;28;19940;-70
2022/04/10 08:28:17;;;;;;;;;;;10.10;65.50;;;;;;4990733;28;19933;-71
2022/04/10 08:30:44;;;;;;;;;;;10.20;65.70;;;;;;5006051;28;19939;-70
2022/04/10 08:33:11;;;;;;;;;;;10.30;64.90;;;;;;4985348;28;19997;-71
2022/04/10 08:35:38;;;;;;;;;;;10.30;64.30;;;;;;4988608;28;20433;-70
2022/04/10 08:38:05;;;;;;;;;;;10.40;64.00;;;;;;4976411;28;19940;-70
2022/04/10 08:40:32;;;;;;;;;;;10.50;64.50;;;;;;4992768;28;19932;-70
2022/04/10 08:43:02;;;;;;;;;;;10.40;62.50;;;;;;4988208;28;20569;-70
2022/04/10 08:45:29;;;;;;;;;;;10.70;62.80;;;;;;4988081;28;20071;-70
2022/04/10 08:47:57;;;;;;;;;;;10.50;62.30;;;;;;5001456;28;19939;-70
2022/04/10 08:50:26;;;;;;;;;;;10.80;63.80;;;;;;4989462;28;19940;-70
2022/04/10 08:52:57;;;;;;;;;;;10.80;59.60;;;;;;4977614;28;19933;-70
2022/04/10 08:55:25;;;;;;;;;;;10.90;61.70;;;;;;4982958;28;19933;-71
2022/04/10 08:57:52;;;;;;;;;;;10.80;59.10;;;;;;4984903;28;20022;-72
2022/04/10 09:00:19;;;;;;;;;;;11.30;62.30;;;;;;5004135;28;19940;-70
2022/04/10 09:02:47;;;;;;;;;;;10.50;60.10;;;;;;4984926;28;19936;-71
2022/04/10 09:05:21;;;;;;;;;;;10.80;61.90;;;;;;4986016;28;22300;-69
2022/04/10 09:08:07;;;;;;;;;;;10.90;61.60;;;;;;4987658;28;19933;-69
2022/04/10 09:10:53;;;;;;;;;;;11.10;60.00;;;;;;5004485;28;20002;-68
2022/04/10 09:13:28;;;;;;;;;;;11.10;59.50;;;;;;4986737;28;21932;-69
2022/04/10 09:16:12;;;;;;;;;;;11.00;58.30;;;;;;4991409;28;20003;-69
2022/04/10 09:18:44;;;;;;;;;;;11.00;58.20;;;;;;4981634;28;20059;-69
2022/04/10 09:21:11;;;;;;;;;;;11.20;59.60;;;;;;4979800;28;19940;-69
2022/04/10 09:23:38;;;;;;;;;;;11.50;58.80;;;;;;4974784;28;19940;-71
2022/04/10 09:26:05;;;;;;;;;;;11.50;59.70;;;;;;5000499;28;19940;-69
2022/04/10 09:28:52;;;;;;;;;;;11.20;60.10;;;;;;4992908;28;22281;-69
2022/04/10 09:31:26;;;;;;;;;;;11.00;60.20;;;;;;4987256;28;20383;-69
2022/04/10 09:33:53;;;;;;;;;;;11.30;60.80;;;;;;4988507;28;19967;-70
2022/04/10 09:36:30;;;;;;;;;;;11.30;59.60;;;;;;4987967;28;19933;-69
2022/04/10 09:38:57;;;;;;;;;;;11.50;61.20;;;;;;5000327;28;19940;-70
2022/04/10 09:41:24;;;;;;;;;;;11.30;60.00;;;;;;4985976;28;19933;-69
2022/04/10 09:43:51;;;;;;;;;;;11.40;61.00;;;;;;4987730;28;20484;-69
2022/04/10 09:46:18;;;;;;;;;;;11.70;62.20;;;;;;4988901;28;21910;-69
2022/04/10 09:48:46;;;;;;;;;;;11.90;60.50;;;;;;4985488;28;22123;-69
2022/04/10 09:51:13;;;;;;;;;;;11.80;57.80;;;;;;4986120;28;19941;-69
2022/04/10 09:53:40;;;;;;;;;;;11.20;56.60;;;;;;4985818;28;20021;-69
2022/04/10 09:56:07;;;;;;;;;;;10.80;57.90;;;;;;4984412;28;19940;-71
2022/04/10 09:58:35;;;;;;;;;;;11.60;59.90;;;;;;4995251;28;19933;-69
2022/04/10 10:01:04;;;;;;;;;;;11.90;58.30;;;;;;4983136;28;19933;-69
2022/04/10 10:03:36;;;;;;;;;;;11.80;59.00;;;;;;4977827;28;20019;-70
2022/04/10 10:06:05;;;;;;;;;;;11.30;59.40;;;;;;4975620;28;19939;-70
2022/04/10 10:08:33;;;;;;;;;;;10.90;59.80;;;;;;4991332;28;19933;-70
2022/04/10 10:11:01;;;;;;;;;;;11.20;59.30;;;;;;4993851;28;19933;-70
2022/04/10 10:13:28;;;;;;;;;;;11.60;59.70;;;;;;4989211;28;19933;-70
2022/04/10 10:15:56;;;;;;;;;;;11.50;58.90;;;;;;4988882;28;19975;-69
2022/04/10 10:18:24;;;;;;;;;;;11.40;61.10;;;;;;4989968;28;19940;-72
2022/04/10 10:20:51;;;;;;;;;;;11.70;60.90;;;;;;4989519;28;19933;-69
2022/04/10 10:23:20;;;;;;;;;;;11.50;59.40;;;;;;4989537;28;19940;-70
2022/04/10 10:25:53;;;;;;;;;;;11.60;59.10;;;;;;5004156;28;19940;-71
2022/04/10 10:28:33;;;;;;;;;;;11.80;58.50;;;;;;4987320;28;20608;-69
2022/04/10 10:31:22;;;;;;;;;;;11.60;58.70;;;;;;4988571;28;19933;-69
2022/04/10 10:33:55;;;;;;;;;;;11.60;58.70;;;;;;4989269;28;20071;-69
2022/04/10 10:36:23;;;;;;;;;;;11.80;58.40;;;;;;4987590;28;19933;-70
2022/04/10 10:38:52;;;;;;;;;;;11.90;58.40;;;;;;4988862;28;19940;-69
2022/04/10 10:41:19;;;;;;;;;;;11.90;58.70;;;;;;4987545;28;19955;-71
2022/04/10 10:43:47;;;;;;;;;;;11.90;57.80;;;;;;4987463;28;19936;-71
2022/04/10 10:46:22;;;;;;;;;;;11.70;56.60;;;;;;4989468;28;19933;-69
2022/04/10 10:49:09;;;;;;;;;;;11.80;58.20;;;;;;4989817;28;20061;-69
2022/04/10 10:51:36;;;;;;;;;;;11.70;57.50;;;;;;4988650;28;19978;-69
2022/04/10 10:54:10;;;;;;;;;;;11.70;58.40;;;;;;4988087;28;21913;-71
2022/04/10 10:56:38;;;;;;;;;;;11.70;56.00;;;;;;4988830;28;19933;-70
2022/04/10 10:59:31;;;;;;;;;;;11.50;57.80;;;;;;5003515;28;19933;-69
2022/04/10 11:02:01;;;;;;;;;;;11.50;56.60;;;;;;4988750;28;19964;-69
2022/04/10 11:04:33;;;;;;;;;;;11.60;56.50;;;;;;4987897;28;20338;-72
2022/04/10 11:07:10;;;;;;;;;;;11.90;55.80;;;;;;4989702;28;20477;-73
2022/04/10 11:09:49;;;;;;;;;;;12.10;57.10;;;;;;4987334;28;19933;-69
2022/04/10 11:12:18;;;;;;;;;;;12.20;57.90;;;;;;4988812;28;20725;-69
2022/04/10 11:14:48;;;;;;;;;;;12.00;56.80;;;;;;4987502;28;19936;-70
2022/04/10 11:17:16;;;;;;;;;;;11.90;56.70;;;;;;4991667;28;20639;-69
2022/04/10 11:19:45;;;;;;;;;;;11.80;55.50;;;;;;4993171;28;20429;-69
2022/04/10 11:22:14;;;;;;;;;;;12.00;55.30;;;;;;4993249;28;19979;-69
2022/04/10 11:24:42;;;;;;;;;;;12.10;54.90;;;;;;4992292;28;19932;-68
2022/04/10 11:27:13;;;;;;;;;;;12.20;54.70;;;;;;4974883;28;19986;-70
2022/04/10 11:30:02;;;;;;;;;;;12.50;55.70;;;;;;4990577;28;20978;-70
2022/04/10 11:32:39;;;;;;;;;;;12.50;53.40;;;;;;4975468;28;20201;-70
2022/04/10 11:35:12;;;;;;;;;;;12.50;53.90;;;;;;4999045;28;19940;-70
2022/04/10 11:37:39;;;;;;;;;;;12.80;56.60;;;;;;4992927;28;19933;-73
2022/04/10 11:40:08;;;;;;;;;;;12.10;55.40;;;;;;4991573;28;20335;-69
2022/04/10 11:42:35;;;;;;;;;;;12.10;54.00;;;;;;4991524;28;20074;-69
2022/04/10 11:45:03;;;;;;;;;;;12.20;54.00;;;;;;5008004;28;19932;-69
2022/04/10 11:47:30;;;;;;;;;;;12.70;54.40;;;;;;4996839;28;21775;-69
2022/04/10 11:49:58;;;;;;;;;;;12.70;54.10;;;;;;4985893;28;20288;-68
2022/04/10 11:52:25;;;;;;;;;;;12.50;54.60;;;;;;4990862;28;19933;-68
2022/04/10 11:54:52;;;;;;;;;;;12.60;56.80;;;;;;4992867;28;19932;-70
2022/04/10 11:57:20;;;;;;;;;;;12.30;54.70;;;;;;4991329;28;19933;-69
2022/04/10 11:59:48;;;;;;;;;;;12.10;54.00;;;;;;4993811;28;19940;-68
2022/04/10 12:02:15;;;;;;;;;;;11.90;55.00;;;;;;4989357;28;19987;-69
2022/04/10 12:04:43;;;;;;;;;;;11.90;55.80;;;;;;4990395;28;20631;-73
2022/04/10 12:07:18;;;;;;;;;;;12.00;56.20;;;;;;4992858;28;21839;-69
2022/04/10 12:09:47;;;;;;;;;;;11.70;54.20;;;;;;4980477;28;20573;-72
2022/04/10 12:12:15;;;;;;;;;;;11.50;53.80;;;;;;5006374;28;19933;-69
2022/04/10 12:14:42;;;;;;;;;;;11.40;54.00;;;;;;4990957;28;19980;-69
2022/04/10 12:17:13;;;;;;;;;;;11.50;54.00;;;;;;4988600;28;19972;-68
2022/04/10 12:19:40;;;;;;;;;;;11.60;52.80;;;;;;5005174;28;19939;-69
2022/04/10 12:22:08;;;;;;;;;;;11.60;54.20;;;;;;4991143;28;19933;-70
2022/04/10 12:24:44;;;;;;;;;;;11.50;53.30;;;;;;4990626;28;20610;-69
2022/04/10 12:27:12;;;;;;;;;;;11.60;52.80;;;;;;4991350;28;19940;-69
2022/04/10 12:29:40;;;;;;;;;;;11.90;53.50;;;;;;4973914;28;19939;-69
2022/04/10 12:32:08;;;;;;;;;;;11.90;52.70;;;;;;4990066;28;21727;-70
2022/04/10 12:34:38;;;;;;;;;;;11.60;51.90;;;;;;4988156;28;20035;-70
2022/04/10 12:37:08;;;;;;;;;;;11.40;53.00;;;;;;4989691;28;19978;-69
2022/04/10 12:39:35;;;;;;;;;;;11.50;52.80;;;;;;5006218;28;19990;-70
2022/04/10 12:42:14;;;;;;;;;;;11.30;52.90;;;;;;4990888;28;20755;-70
2022/04/10 12:44:41;;;;;;;;;;;11.80;52.90;;;;;;4991539;28;19933;-70
2022/04/10 12:47:09;;;;;;;;;;;12.40;53.10;;;;;;4990532;28;19933;-70
2022/04/10 12:49:36;;;;;;;;;;;12.60;51.90;;;;;;4989867;28;19933;-70
2022/04/10 12:52:04;;;;;;;;;;;12.40;52.60;;;;;;4991008;28;21809;-71
2022/04/10 12:54:38;;;;;;;;;;;12.10;52.30;;;;;;4989766;28;21920;-71
2022/04/10 12:57:06;;;;;;;;;;;12.10;53.50;;;;;;5006236;28;19940;-70
2022/04/10 12:59:34;;;;;;;;;;;11.90;51.20;;;;;;4989814;28;19963;-70
2022/04/10 13:02:03;;;;;;;;;;;12.20;51.90;;;;;;4989663;28;20039;-70
2022/04/10 13:04:30;;;;;;;;;;;12.10;50.40;;;;;;4989180;28;19933;-71
2022/04/10 13:06:57;;;;;;;;;;;12.10;49.30;;;;;;4988893;28;20327;-70
2022/04/10 13:09:24;;;;;;;;;;;12.20;49.70;;;;;;4990925;28;20592;-70
2022/04/10 13:11:53;;;;;;;;;;;12.30;49.10;;;;;;4994569;28;19999;-70
2022/04/10 13:14:20;;;;;;;;;;;12.50;48.70;;;;;;4987568;28;20006;-69
2022/04/10 13:16:47;;;;;;;;;;;12.30;47.50;;;;;;4988301;28;19971;-69
2022/04/10 13:19:14;;;;;;;;;;;12.50;48.70;;;;;;4995878;28;19933;-69
2022/04/10 13:21:45;;;;;;;;;;;12.60;47.80;;;;;;4990753;28;20502;-69
2022/04/10 13:24:13;;;;;;;;;;;12.80;47.70;;;;;;4989134;28;20565;-71
2022/04/10 13:26:40;;;;;;;;;;;13.00;48.10;;;;;;4990351;28;20063;-69
2022/04/10 13:29:08;;;;;;;;;;;13.40;47.90;;;;;;4995483;28;20599;-70
2022/04/10 13:31:35;;;;;;;;;;;13.40;47.10;;;;;;4989003;28;20363;-71
2022/04/10 13:34:06;;;;;;;;;;;13.10;46.00;;;;;;5005451;28;19933;-71
2022/04/10 13:36:39;;;;;;;;;;;12.40;46.60;;;;;;5004440;28;20379;-70
2022/04/10 13:39:06;;;;;;;;;;;12.20;47.00;;;;;;4988281;28;20475;-70
2022/04/10 13:41:33;;;;;;;;;;;12.30;46.80;;;;;;4989030;28;19939;-69
2022/04/10 13:44:01;;;;;;;;;;;12.50;46.70;;;;;;4989545;28;20031;-68
2022/04/10 13:46:28;;;;;;;;;;;12.80;47.10;;;;;;4987258;28;19933;-69
2022/04/10 13:48:55;;;;;;;;;;;12.70;47.30;;;;;;5008820;28;19933;-72
2022/04/10 13:51:23;;;;;;;;;;;12.70;48.00;;;;;;5006164;28;19939;-71
2022/04/10 13:53:50;;;;;;;;;;;12.30;47.40;;;;;;4988868;28;19933;-69
2022/04/10 13:56:17;;;;;;;;;;;12.40;48.60;;;;;;5003836;28;20117;-70
2022/04/10 13:58:44;;;;;;;;;;;12.20;47.60;;;;;;4990501;28;20182;-70
2022/04/10 14:01:11;;;;;;;;;;;12.50;48.00;;;;;;4990427;28;19968;-69
2022/04/10 14:03:39;;;;;;;;;;;12.50;46.00;;;;;;4990180;28;22475;-70
2022/04/10 14:06:06;;;;;;;;;;;12.30;46.90;;;;;;4993713;28;20066;-68
2022/04/10 14:08:33;;;;;;;;;;;12.20;46.80;;;;;;4988641;28;20066;-72
2022/04/10 14:11:19;;;;;;;;;;;12.10;48.20;;;;;;4994314;28;19933;-68
2022/04/10 14:13:46;;;;;;;;;;;12.30;48.00;;;;;;4989333;28;19933;-70
2022/04/10 14:16:13;;;;;;;;;;;12.30;48.30;;;;;;4988030;28;19932;-69
2022/04/10 14:18:41;;;;;;;;;;;12.40;49.20;;;;;;5004026;28;19971;-69
2022/04/10 14:21:10;;;;;;;;;;;12.30;49.50;;;;;;4989336;28;21163;-70
2022/04/10 14:23:37;;;;;;;;;;;11.90;49.40;;;;;;4987070;28;20387;-71
2022/04/10 14:26:07;;;;;;;;;;;11.40;49.50;;;;;;4984564;28;19933;-69
2022/04/10 14:28:35;;;;;;;;;;;11.20;49.80;;;;;;4974558;28;20502;-69
2022/04/10 14:31:02;;;;;;;;;;;11.30;47.40;;;;;;4987344;28;19933;-69
2022/04/10 14:33:31;;;;;;;;;;;11.40;46.30;;;;;;4987438;28;20415;-69
2022/04/10 14:36:02;;;;;;;;;;;11.60;44.90;;;;;;4988440;28;19937;-69
2022/04/10 14:38:29;;;;;;;;;;;11.90;46.10;;;;;;4986914;28;20061;-69